sensor_id;sensor_type;location;lat;lon;timestamp;P1;durP1;ratioP1;P2;durP2;ratioP2
14900;SDS011;7542;49.078;9.194;2023-09-19T00:00:16;0.28;;;0.28;;
14900;SDS011;7542;49.078;9.194;2023-09-19T00:01:20;0.40;;;0.40;;
14900;SDS011;7542;49.078;9.194;2023-09-19T00:02:24;0.50;;;0.50;;
14900;SDS011;7542;49.078;9.194;2023-09-19T00:03:29;0.80;;;0.47;;
14900;SDS011;7542;49.078;9.194;2023-09-19T00:04:34;0.40;;;0.40;;
14900;SDS011;7542;49.078;9.194;2023-09-19T00:05:41;0.50;;;0.50;;
14900;SDS011;7542;49.078;9.194;2023-09-19T00:06:45;0.57;;;0.57;;
14900;SDS011;7542;49.078;9.194;2023-09-19T00:07:48;0.75;;;0.20;;
14900;SDS011;7542;49.078;9.194;2023-09-19T00:09:00;0.70;;;0.40;;
14900;SDS011;7542;49.078;9.194;2023-09-19T00:10:04;0.38;;;0.38;;
14900;SDS011;7542;49.078;9.194;2023-09-19T00:11:08;0.32;;;0.32;;
14900;SDS011;7542;49.078;9.194;2023-09-19T00:12:12;0.47;;;0.47;;
14900;SDS011;7542;49.078;9.194;2023-09-19T00:13:14;0.40;;;0.40;;
14900;SDS011;7542;49.078;9.194;2023-09-19T00:14:19;0.40;;;0.40;;
14900;SDS011;7542;49.078;9.194;2023-09-19T00:15:22;0.25;;;0.20;;
14900;SDS011;7542;49.078;9.194;2023-09-19T00:16:29;0.50;;;0.50;;
14900;SDS011;7542;49.078;9.194;2023-09-19T00:17:32;0.25;;;0.25;;
14900;SDS011;7542;49.078;9.194;2023-09-19T00:18:34;0.20;;;0.20;;
14900;SDS011;7542;49.078;9.194;2023-09-19T00:19:36;1.00;;;0.30;;
14900;SDS011;7542;49.078;9.194;2023-09-19T00:20:39;0.30;;;0.30;;
14900;SDS011;7542;49.078;9.194;2023-09-19T00:21:55;0.68;;;0.40;;
14900;SDS011;7542;49.078;9.194;2023-09-19T00:22:57;0.98;;;0.30;;
14900;SDS011;7542;49.078;9.194;2023-09-19T00:24:10;1.67;;;0.40;;
14900;SDS011;7542;49.078;9.194;2023-09-19T00:25:14;0.45;;;0.45;;
14900;SDS011;7542;49.078;9.194;2023-09-19T00:26:17;0.30;;;0.30;;
14900;SDS011;7542;49.078;9.194;2023-09-19T00:27:20;0.45;;;0.45;;
14900;SDS011;7542;49.078;9.194;2023-09-19T00:28:22;0.30;;;0.30;;
14900;SDS011;7542;49.078;9.194;2023-09-19T00:29:24;0.40;;;0.40;;
14900;SDS011;7542;49.078;9.194;2023-09-19T00:30:35;0.25;;;0.20;;
14900;SDS011;7542;49.078;9.194;2023-09-19T00:31:37;0.40;;;0.40;;
14900;SDS011;7542;49.078;9.194;2023-09-19T00:32:42;0.30;;;0.30;;
14900;SDS011;7542;49.078;9.194;2023-09-19T00:33:47;0.20;;;0.20;;
14900;SDS011;7542;49.078;9.194;2023-09-19T00:34:50;0.30;;;0.30;;
14900;SDS011;7542;49.078;9.194;2023-09-19T00:35:55;0.38;;;0.38;;
14900;SDS011;7542;49.078;9.194;2023-09-19T00:37:05;0.30;;;0.30;;
14900;SDS011;7542;49.078;9.194;2023-09-19T00:38:08;0.25;;;0.22;;
14900;SDS011;7542;49.078;9.194;2023-09-19T00:39:10;0.30;;;0.30;;
14900;SDS011;7542;49.078;9.194;2023-09-19T00:40:12;0.40;;;0.40;;
14900;SDS011;7542;49.078;9.194;2023-09-19T00:41:17;0.52;;;0.28;;
14900;SDS011;7542;49.078;9.194;2023-09-19T00:42:22;0.63;;;0.50;;
14900;SDS011;7542;49.078;9.194;2023-09-19T00:43:26;0.60;;;0.52;;
14900;SDS011;7542;49.078;9.194;2023-09-19T00:44:29;0.50;;;0.50;;
14900;SDS011;7542;49.078;9.194;2023-09-19T00:45:32;0.30;;;0.30;;
14900;SDS011;7542;49.078;9.194;2023-09-19T00:46:37;0.30;;;0.30;;
14900;SDS011;7542;49.078;9.194;2023-09-19T00:47:49;1.02;;;0.60;;
14900;SDS011;7542;49.078;9.194;2023-09-19T00:48:55;0.52;;;0.52;;
14900;SDS011;7542;49.078;9.194;2023-09-19T00:49:59;0.47;;;0.47;;
14900;SDS011;7542;49.078;9.194;2023-09-19T00:51:08;1.10;;;0.47;;
14900;SDS011;7542;49.078;9.194;2023-09-19T00:52:12;0.40;;;0.30;;
14900;SDS011;7542;49.078;9.194;2023-09-19T00:53:19;0.25;;;0.25;;
14900;SDS011;7542;49.078;9.194;2023-09-19T00:54:33;0.30;;;0.30;;
14900;SDS011;7542;49.078;9.194;2023-09-19T00:55:39;0.20;;;0.20;;
14900;SDS011;7542;49.078;9.194;2023-09-19T00:56:47;0.30;;;0.30;;
14900;SDS011;7542;49.078;9.194;2023-09-19T00:57:50;0.30;;;0.30;;
14900;SDS011;7542;49.078;9.194;2023-09-19T00:58:57;0.40;;;0.40;;
14900;SDS011;7542;49.078;9.194;2023-09-19T01:00:00;0.40;;;0.40;;
14900;SDS011;7542;49.078;9.194;2023-09-19T01:01:07;0.25;;;0.25;;
14900;SDS011;7542;49.078;9.194;2023-09-19T01:02:10;0.40;;;0.40;;
14900;SDS011;7542;49.078;9.194;2023-09-19T01:03:17;0.32;;;0.32;;
14900;SDS011;7542;49.078;9.194;2023-09-19T01:04:20;0.20;;;0.20;;
14900;SDS011;7542;49.078;9.194;2023-09-19T01:05:23;0.40;;;0.40;;
14900;SDS011;7542;49.078;9.194;2023-09-19T01:06:26;0.90;;;0.30;;
14900;SDS011;7542;49.078;9.194;2023-09-19T01:07:33;0.40;;;0.40;;
14900;SDS011;7542;49.078;9.194;2023-09-19T01:08:37;0.20;;;0.20;;
14900;SDS011;7542;49.078;9.194;2023-09-19T01:09:38;1.27;;;0.30;;
14900;SDS011;7542;49.078;9.194;2023-09-19T01:10:44;0.30;;;0.30;;
14900;SDS011;7542;49.078;9.194;2023-09-19T01:12:02;0.50;;;0.30;;
14900;SDS011;7542;49.078;9.194;2023-09-19T01:15:10;0.30;;;0.30;;
14900;SDS011;7542;49.078;9.194;2023-09-19T01:16:48;0.20;;;0.20;;
14900;SDS011;7542;49.078;9.194;2023-09-19T01:18:39;0.28;;;0.28;;
14900;SDS011;7542;49.078;9.194;2023-09-19T01:30:24;0.38;;;0.38;;
14900;SDS011;7542;49.078;9.194;2023-09-19T01:31:37;0.30;;;0.30;;
14900;SDS011;7542;49.078;9.194;2023-09-19T01:32:44;0.30;;;0.30;;
14900;SDS011;7542;49.078;9.194;2023-09-19T01:35:07;0.45;;;0.45;;
14900;SDS011;7542;49.078;9.194;2023-09-19T01:36:15;0.30;;;0.30;;
14900;SDS011;7542;49.078;9.194;2023-09-19T01:37:19;0.40;;;0.40;;
14900;SDS011;7542;49.078;9.194;2023-09-19T01:38:26;0.30;;;0.30;;
14900;SDS011;7542;49.078;9.194;2023-09-19T01:39:30;0.40;;;0.40;;
14900;SDS011;7542;49.078;9.194;2023-09-19T01:40:33;0.40;;;0.40;;
14900;SDS011;7542;49.078;9.194;2023-09-19T01:44:55;0.30;;;0.30;;
14900;SDS011;7542;49.078;9.194;2023-09-19T01:50:49;0.90;;;0.40;;
14900;SDS011;7542;49.078;9.194;2023-09-19T01:52:05;0.30;;;0.20;;
14900;SDS011;7542;49.078;9.194;2023-09-19T01:54:52;0.30;;;0.30;;
14900;SDS011;7542;49.078;9.194;2023-09-19T01:56:05;0.30;;;0.30;;
14900;SDS011;7542;49.078;9.194;2023-09-19T01:57:27;2.10;;;0.50;;
14900;SDS011;7542;49.078;9.194;2023-09-19T01:58:37;0.43;;;0.20;;
14900;SDS011;7542;49.078;9.194;2023-09-19T01:59:52;0.30;;;0.30;;
14900;SDS011;7542;49.078;9.194;2023-09-19T02:01:08;1.17;;;0.50;;
14900;SDS011;7542;49.078;9.194;2023-09-19T02:02:16;0.20;;;0.20;;
14900;SDS011;7542;49.078;9.194;2023-09-19T02:03:24;0.50;;;0.50;;
14900;SDS011;7542;49.078;9.194;2023-09-19T02:04:29;0.30;;;0.30;;
14900;SDS011;7542;49.078;9.194;2023-09-19T02:05:32;0.40;;;0.40;;
14900;SDS011;7542;49.078;9.194;2023-09-19T02:06:34;0.40;;;0.40;;
14900;SDS011;7542;49.078;9.194;2023-09-19T02:07:39;0.40;;;0.40;;
14900;SDS011;7542;49.078;9.194;2023-09-19T02:08:43;0.95;;;0.30;;
14900;SDS011;7542;49.078;9.194;2023-09-19T02:09:46;0.20;;;0.20;;
14900;SDS011;7542;49.078;9.194;2023-09-19T02:10:49;0.30;;;0.30;;
14900;SDS011;7542;49.078;9.194;2023-09-19T02:11:54;0.30;;;0.30;;
14900;SDS011;7542;49.078;9.194;2023-09-19T02:12:57;0.40;;;0.30;;
14900;SDS011;7542;49.078;9.194;2023-09-19T02:14:02;0.30;;;0.30;;
14900;SDS011;7542;49.078;9.194;2023-09-19T02:15:05;0.35;;;0.35;;
14900;SDS011;7542;49.078;9.194;2023-09-19T02:16:09;0.50;;;0.40;;
14900;SDS011;7542;49.078;9.194;2023-09-19T02:17:13;0.28;;;0.28;;
14900;SDS011;7542;49.078;9.194;2023-09-19T02:18:15;0.25;;;0.25;;
14900;SDS011;7542;49.078;9.194;2023-09-19T02:19:18;0.50;;;0.40;;
14900;SDS011;7542;49.078;9.194;2023-09-19T02:20:22;0.30;;;0.30;;
14900;SDS011;7542;49.078;9.194;2023-09-19T02:21:24;0.90;;;0.52;;
14900;SDS011;7542;49.078;9.194;2023-09-19T02:22:26;0.70;;;0.43;;
14900;SDS011;7542;49.078;9.194;2023-09-19T02:23:30;0.40;;;0.40;;
14900;SDS011;7542;49.078;9.194;2023-09-19T02:24:33;1.60;;;0.40;;
14900;SDS011;7542;49.078;9.194;2023-09-19T02:25:41;0.22;;;0.22;;
14900;SDS011;7542;49.078;9.194;2023-09-19T02:26:44;0.40;;;0.40;;
14900;SDS011;7542;49.078;9.194;2023-09-19T02:27:46;0.30;;;0.30;;
14900;SDS011;7542;49.078;9.194;2023-09-19T02:28:52;0.30;;;0.30;;
14900;SDS011;7542;49.078;9.194;2023-09-19T02:29:54;0.40;;;0.40;;
14900;SDS011;7542;49.078;9.194;2023-09-19T02:30:57;0.80;;;0.40;;
14900;SDS011;7542;49.078;9.194;2023-09-19T02:32:01;0.22;;;0.20;;
14900;SDS011;7542;49.078;9.194;2023-09-19T02:33:05;2.05;;;0.40;;
14900;SDS011;7542;49.078;9.194;2023-09-19T02:34:07;0.40;;;0.40;;
14900;SDS011;7542;49.078;9.194;2023-09-19T02:35:10;0.40;;;0.40;;
14900;SDS011;7542;49.078;9.194;2023-09-19T02:36:12;0.60;;;0.20;;
14900;SDS011;7542;49.078;9.194;2023-09-19T02:37:15;0.30;;;0.30;;
14900;SDS011;7542;49.078;9.194;2023-09-19T02:38:20;1.13;;;0.52;;
14900;SDS011;7542;49.078;9.194;2023-09-19T02:39:26;0.40;;;0.40;;
14900;SDS011;7542;49.078;9.194;2023-09-19T02:40:29;0.30;;;0.30;;
14900;SDS011;7542;49.078;9.194;2023-09-19T02:41:31;0.32;;;0.30;;
14900;SDS011;7542;49.078;9.194;2023-09-19T02:42:34;0.28;;;0.28;;
14900;SDS011;7542;49.078;9.194;2023-09-19T02:43:36;0.45;;;0.45;;
14900;SDS011;7542;49.078;9.194;2023-09-19T02:44:38;0.28;;;0.28;;
14900;SDS011;7542;49.078;9.194;2023-09-19T02:45:41;0.25;;;0.25;;
14900;SDS011;7542;49.078;9.194;2023-09-19T02:46:43;0.40;;;0.35;;
14900;SDS011;7542;49.078;9.194;2023-09-19T02:47:45;0.35;;;0.35;;
14900;SDS011;7542;49.078;9.194;2023-09-19T02:48:49;0.20;;;0.20;;
14900;SDS011;7542;49.078;9.194;2023-09-19T02:49:52;0.43;;;0.20;;
14900;SDS011;7542;49.078;9.194;2023-09-19T02:50:54;0.40;;;0.40;;
14900;SDS011;7542;49.078;9.194;2023-09-19T02:51:59;0.30;;;0.30;;
14900;SDS011;7542;49.078;9.194;2023-09-19T02:53:04;0.30;;;0.30;;
14900;SDS011;7542;49.078;9.194;2023-09-19T02:54:08;0.70;;;0.30;;
14900;SDS011;7542;49.078;9.194;2023-09-19T02:55:10;0.30;;;0.22;;
14900;SDS011;7542;49.078;9.194;2023-09-19T02:56:19;1.10;;;0.40;;
14900;SDS011;7542;49.078;9.194;2023-09-19T02:57:21;0.30;;;0.30;;
14900;SDS011;7542;49.078;9.194;2023-09-19T02:58:26;0.35;;;0.30;;
14900;SDS011;7542;49.078;9.194;2023-09-19T02:59:31;0.38;;;0.38;;
14900;SDS011;7542;49.078;9.194;2023-09-19T03:00:34;0.20;;;0.20;;
14900;SDS011;7542;49.078;9.194;2023-09-19T03:01:37;0.25;;;0.25;;
14900;SDS011;7542;49.078;9.194;2023-09-19T03:02:40;0.40;;;0.40;;
14900;SDS011;7542;49.078;9.194;2023-09-19T03:03:44;0.32;;;0.30;;
14900;SDS011;7542;49.078;9.194;2023-09-19T03:04:47;0.38;;;0.38;;
14900;SDS011;7542;49.078;9.194;2023-09-19T03:05:49;0.52;;;0.50;;
14900;SDS011;7542;49.078;9.194;2023-09-19T03:06:56;1.02;;;0.47;;
14900;SDS011;7542;49.078;9.194;2023-09-19T03:08:04;0.20;;;0.20;;
14900;SDS011;7542;49.078;9.194;2023-09-19T03:09:06;0.40;;;0.40;;
14900;SDS011;7542;49.078;9.194;2023-09-19T03:10:19;0.40;;;0.40;;
14900;SDS011;7542;49.078;9.194;2023-09-19T03:11:24;0.38;;;0.20;;
14900;SDS011;7542;49.078;9.194;2023-09-19T03:12:26;0.57;;;0.30;;
14900;SDS011;7542;49.078;9.194;2023-09-19T03:13:30;0.47;;;0.47;;
14900;SDS011;7542;49.078;9.194;2023-09-19T03:14:33;0.40;;;0.30;;
14900;SDS011;7542;49.078;9.194;2023-09-19T03:15:36;0.22;;;0.22;;
14900;SDS011;7542;49.078;9.194;2023-09-19T03:16:45;0.40;;;0.40;;
14900;SDS011;7542;49.078;9.194;2023-09-19T03:17:48;0.93;;;0.45;;
14900;SDS011;7542;49.078;9.194;2023-09-19T03:18:52;0.40;;;0.40;;
14900;SDS011;7542;49.078;9.194;2023-09-19T03:19:54;0.20;;;0.20;;
14900;SDS011;7542;49.078;9.194;2023-09-19T03:20:58;0.40;;;0.30;;
14900;SDS011;7542;49.078;9.194;2023-09-19T03:22:07;0.40;;;0.30;;
14900;SDS011;7542;49.078;9.194;2023-09-19T03:23:12;0.20;;;0.20;;
14900;SDS011;7542;49.078;9.194;2023-09-19T03:24:14;0.40;;;0.35;;
14900;SDS011;7542;49.078;9.194;2023-09-19T03:25:16;0.30;;;0.30;;
14900;SDS011;7542;49.078;9.194;2023-09-19T03:26:19;0.22;;;0.22;;
14900;SDS011;7542;49.078;9.194;2023-09-19T03:27:21;0.28;;;0.25;;
14900;SDS011;7542;49.078;9.194;2023-09-19T03:28:24;0.13;;;0.13;;
14900;SDS011;7542;49.078;9.194;2023-09-19T03:29:29;0.43;;;0.32;;
14900;SDS011;7542;49.078;9.194;2023-09-19T03:30:35;0.30;;;0.30;;
14900;SDS011;7542;49.078;9.194;2023-09-19T03:31:38;0.50;;;0.50;;
14900;SDS011;7542;49.078;9.194;2023-09-19T03:32:46;0.40;;;0.40;;
14900;SDS011;7542;49.078;9.194;2023-09-19T03:33:52;0.20;;;0.20;;
14900;SDS011;7542;49.078;9.194;2023-09-19T03:34:54;0.30;;;0.30;;
14900;SDS011;7542;49.078;9.194;2023-09-19T03:35:56;0.25;;;0.25;;
14900;SDS011;7542;49.078;9.194;2023-09-19T03:37:02;0.32;;;0.32;;
14900;SDS011;7542;49.078;9.194;2023-09-19T03:38:06;0.40;;;0.40;;
14900;SDS011;7542;49.078;9.194;2023-09-19T03:39:08;0.47;;;0.47;;
14900;SDS011;7542;49.078;9.194;2023-09-19T03:40:10;0.17;;;0.17;;
14900;SDS011;7542;49.078;9.194;2023-09-19T03:41:13;0.30;;;0.30;;
14900;SDS011;7542;49.078;9.194;2023-09-19T03:42:18;0.32;;;0.32;;
14900;SDS011;7542;49.078;9.194;2023-09-19T03:43:26;0.38;;;0.38;;
14900;SDS011;7542;49.078;9.194;2023-09-19T03:44:30;0.52;;;0.52;;
14900;SDS011;7542;49.078;9.194;2023-09-19T03:45:33;0.30;;;0.30;;
14900;SDS011;7542;49.078;9.194;2023-09-19T03:46:35;0.82;;;0.25;;
14900;SDS011;7542;49.078;9.194;2023-09-19T03:47:38;0.50;;;0.30;;
14900;SDS011;7542;49.078;9.194;2023-09-19T03:48:42;0.35;;;0.30;;
14900;SDS011;7542;49.078;9.194;2023-09-19T03:49:44;0.40;;;0.40;;
14900;SDS011;7542;49.078;9.194;2023-09-19T03:50:47;0.30;;;0.30;;
14900;SDS011;7542;49.078;9.194;2023-09-19T03:51:49;1.15;;;0.30;;
14900;SDS011;7542;49.078;9.194;2023-09-19T03:52:56;0.30;;;0.30;;
14900;SDS011;7542;49.078;9.194;2023-09-19T03:53:58;0.30;;;0.30;;
14900;SDS011;7542;49.078;9.194;2023-09-19T03:55:01;0.93;;;0.55;;
14900;SDS011;7542;49.078;9.194;2023-09-19T03:56:06;0.30;;;0.30;;
14900;SDS011;7542;49.078;9.194;2023-09-19T03:57:10;0.75;;;0.40;;
14900;SDS011;7542;49.078;9.194;2023-09-19T03:58:17;1.05;;;0.20;;
14900;SDS011;7542;49.078;9.194;2023-09-19T03:59:18;0.20;;;0.20;;
14900;SDS011;7542;49.078;9.194;2023-09-19T04:00:21;0.32;;;0.32;;
14900;SDS011;7542;49.078;9.194;2023-09-19T04:01:27;0.38;;;0.38;;
14900;SDS011;7542;49.078;9.194;2023-09-19T04:02:32;0.40;;;0.40;;
14900;SDS011;7542;49.078;9.194;2023-09-19T04:03:35;0.40;;;0.40;;
14900;SDS011;7542;49.078;9.194;2023-09-19T04:04:51;0.30;;;0.30;;
14900;SDS011;7542;49.078;9.194;2023-09-19T04:05:55;0.30;;;0.30;;
14900;SDS011;7542;49.078;9.194;2023-09-19T04:06:57;0.35;;;0.30;;
14900;SDS011;7542;49.078;9.194;2023-09-19T04:07:59;0.60;;;0.50;;
14900;SDS011;7542;49.078;9.194;2023-09-19T04:09:04;0.38;;;0.30;;
14900;SDS011;7542;49.078;9.194;2023-09-19T04:10:08;0.40;;;0.40;;
14900;SDS011;7542;49.078;9.194;2023-09-19T04:11:12;0.32;;;0.32;;
14900;SDS011;7542;49.078;9.194;2023-09-19T04:12:15;0.30;;;0.30;;
14900;SDS011;7542;49.078;9.194;2023-09-19T04:13:20;0.30;;;0.30;;
14900;SDS011;7542;49.078;9.194;2023-09-19T04:14:23;0.98;;;0.20;;
14900;SDS011;7542;49.078;9.194;2023-09-19T04:15:26;0.35;;;0.35;;
14900;SDS011;7542;49.078;9.194;2023-09-19T04:16:28;0.13;;;0.13;;
14900;SDS011;7542;49.078;9.194;2023-09-19T04:17:30;0.20;;;0.20;;
14900;SDS011;7542;49.078;9.194;2023-09-19T04:18:34;0.40;;;0.40;;
14900;SDS011;7542;49.078;9.194;2023-09-19T04:19:40;0.30;;;0.30;;
14900;SDS011;7542;49.078;9.194;2023-09-19T04:20:49;0.30;;;0.30;;
14900;SDS011;7542;49.078;9.194;2023-09-19T04:21:53;0.45;;;0.45;;
14900;SDS011;7542;49.078;9.194;2023-09-19T04:22:56;0.30;;;0.30;;
14900;SDS011;7542;49.078;9.194;2023-09-19T04:23:58;0.30;;;0.30;;
14900;SDS011;7542;49.078;9.194;2023-09-19T04:25:00;0.15;;;0.15;;
14900;SDS011;7542;49.078;9.194;2023-09-19T04:26:03;0.30;;;0.30;;
14900;SDS011;7542;49.078;9.194;2023-09-19T04:27:07;0.80;;;0.70;;
14900;SDS011;7542;49.078;9.194;2023-09-19T04:28:11;0.40;;;0.40;;
14900;SDS011;7542;49.078;9.194;2023-09-19T04:29:13;0.30;;;0.30;;
14900;SDS011;7542;49.078;9.194;2023-09-19T04:30:15;0.50;;;0.50;;
14900;SDS011;7542;49.078;9.194;2023-09-19T04:31:17;0.30;;;0.30;;
14900;SDS011;7542;49.078;9.194;2023-09-19T04:32:20;0.28;;;0.28;;
14900;SDS011;7542;49.078;9.194;2023-09-19T04:33:23;1.95;;;0.38;;
14900;SDS011;7542;49.078;9.194;2023-09-19T04:34:25;0.30;;;0.30;;
14900;SDS011;7542;49.078;9.194;2023-09-19T04:35:26;0.50;;;0.50;;
14900;SDS011;7542;49.078;9.194;2023-09-19T04:36:30;0.30;;;0.30;;
14900;SDS011;7542;49.078;9.194;2023-09-19T04:37:39;0.20;;;0.20;;
14900;SDS011;7542;49.078;9.194;2023-09-19T04:38:43;0.40;;;0.40;;
14900;SDS011;7542;49.078;9.194;2023-09-19T04:39:47;0.40;;;0.40;;
14900;SDS011;7542;49.078;9.194;2023-09-19T04:40:49;0.40;;;0.40;;
14900;SDS011;7542;49.078;9.194;2023-09-19T04:41:53;0.30;;;0.25;;
14900;SDS011;7542;49.078;9.194;2023-09-19T04:42:56;0.32;;;0.32;;
14900;SDS011;7542;49.078;9.194;2023-09-19T04:43:58;0.40;;;0.40;;
14900;SDS011;7542;49.078;9.194;2023-09-19T04:45:01;0.38;;;0.38;;
14900;SDS011;7542;49.078;9.194;2023-09-19T04:46:03;0.13;;;0.10;;
14900;SDS011;7542;49.078;9.194;2023-09-19T04:47:08;0.20;;;0.20;;
14900;SDS011;7542;49.078;9.194;2023-09-19T04:48:10;0.32;;;0.32;;
14900;SDS011;7542;49.078;9.194;2023-09-19T04:49:13;0.32;;;0.30;;
14900;SDS011;7542;49.078;9.194;2023-09-19T04:50:16;0.30;;;0.30;;
14900;SDS011;7542;49.078;9.194;2023-09-19T04:51:19;0.40;;;0.40;;
14900;SDS011;7542;49.078;9.194;2023-09-19T04:52:22;0.90;;;0.30;;
14900;SDS011;7542;49.078;9.194;2023-09-19T04:53:24;0.25;;;0.25;;
14900;SDS011;7542;49.078;9.194;2023-09-19T04:54:28;0.98;;;0.32;;
14900;SDS011;7542;49.078;9.194;2023-09-19T04:55:30;0.22;;;0.22;;
14900;SDS011;7542;49.078;9.194;2023-09-19T04:56:34;0.30;;;0.30;;
14900;SDS011;7542;49.078;9.194;2023-09-19T04:57:36;0.32;;;0.32;;
14900;SDS011;7542;49.078;9.194;2023-09-19T04:58:38;0.28;;;0.28;;
14900;SDS011;7542;49.078;9.194;2023-09-19T04:59:40;0.22;;;0.22;;
14900;SDS011;7542;49.078;9.194;2023-09-19T05:00:43;0.40;;;0.40;;
14900;SDS011;7542;49.078;9.194;2023-09-19T05:01:46;0.30;;;0.30;;
14900;SDS011;7542;49.078;9.194;2023-09-19T05:02:49;0.50;;;0.50;;
14900;SDS011;7542;49.078;9.194;2023-09-19T05:03:53;0.30;;;0.30;;
14900;SDS011;7542;49.078;9.194;2023-09-19T05:04:56;0.40;;;0.40;;
14900;SDS011;7542;49.078;9.194;2023-09-19T05:06:00;0.40;;;0.40;;
14900;SDS011;7542;49.078;9.194;2023-09-19T05:07:05;0.47;;;0.47;;
14900;SDS011;7542;49.078;9.194;2023-09-19T05:08:07;0.80;;;0.30;;
14900;SDS011;7542;49.078;9.194;2023-09-19T05:09:10;0.30;;;0.30;;
14900;SDS011;7542;49.078;9.194;2023-09-19T05:10:13;0.10;;;0.10;;
14900;SDS011;7542;49.078;9.194;2023-09-19T05:11:19;0.30;;;0.30;;
14900;SDS011;7542;49.078;9.194;2023-09-19T05:12:23;0.70;;;0.45;;
14900;SDS011;7542;49.078;9.194;2023-09-19T05:13:27;0.35;;;0.35;;
14900;SDS011;7542;49.078;9.194;2023-09-19T05:14:29;0.25;;;0.25;;
14900;SDS011;7542;49.078;9.194;2023-09-19T05:15:32;0.30;;;0.30;;
14900;SDS011;7542;49.078;9.194;2023-09-19T05:16:35;0.30;;;0.30;;
14900;SDS011;7542;49.078;9.194;2023-09-19T05:17:37;0.20;;;0.20;;
14900;SDS011;7542;49.078;9.194;2023-09-19T05:18:40;0.38;;;0.38;;
14900;SDS011;7542;49.078;9.194;2023-09-19T05:19:43;0.30;;;0.30;;
14900;SDS011;7542;49.078;9.194;2023-09-19T05:20:47;0.30;;;0.30;;
14900;SDS011;7542;49.078;9.194;2023-09-19T05:21:51;0.43;;;0.43;;
14900;SDS011;7542;49.078;9.194;2023-09-19T05:22:59;0.50;;;0.50;;
14900;SDS011;7542;49.078;9.194;2023-09-19T05:24:10;0.30;;;0.30;;
14900;SDS011;7542;49.078;9.194;2023-09-19T05:25:15;0.35;;;0.35;;
14900;SDS011;7542;49.078;9.194;2023-09-19T05:26:19;0.80;;;0.43;;
14900;SDS011;7542;49.078;9.194;2023-09-19T05:27:24;0.43;;;0.43;;
14900;SDS011;7542;49.078;9.194;2023-09-19T05:28:26;0.35;;;0.35;;
14900;SDS011;7542;49.078;9.194;2023-09-19T05:29:30;0.20;;;0.20;;
14900;SDS011;7542;49.078;9.194;2023-09-19T05:30:35;0.50;;;0.50;;
14900;SDS011;7542;49.078;9.194;2023-09-19T05:31:37;0.50;;;0.30;;
14900;SDS011;7542;49.078;9.194;2023-09-19T05:32:42;0.50;;;0.50;;
14900;SDS011;7542;49.078;9.194;2023-09-19T05:33:45;0.95;;;0.30;;
14900;SDS011;7542;49.078;9.194;2023-09-19T05:34:47;0.22;;;0.22;;
14900;SDS011;7542;49.078;9.194;2023-09-19T05:35:49;0.40;;;0.40;;
14900;SDS011;7542;49.078;9.194;2023-09-19T05:36:51;0.38;;;0.38;;
14900;SDS011;7542;49.078;9.194;2023-09-19T05:37:56;0.38;;;0.38;;
14900;SDS011;7542;49.078;9.194;2023-09-19T05:38:59;0.32;;;0.32;;
14900;SDS011;7542;49.078;9.194;2023-09-19T05:40:02;0.60;;;0.60;;
14900;SDS011;7542;49.078;9.194;2023-09-19T05:41:09;0.22;;;0.22;;
14900;SDS011;7542;49.078;9.194;2023-09-19T05:42:14;0.22;;;0.22;;
14900;SDS011;7542;49.078;9.194;2023-09-19T05:43:19;0.30;;;0.30;;
14900;SDS011;7542;49.078;9.194;2023-09-19T05:44:23;0.40;;;0.40;;
14900;SDS011;7542;49.078;9.194;2023-09-19T05:45:27;1.42;;;1.00;;
14900;SDS011;7542;49.078;9.194;2023-09-19T05:46:29;0.55;;;0.32;;
14900;SDS011;7542;49.078;9.194;2023-09-19T05:47:32;0.40;;;0.40;;
14900;SDS011;7542;49.078;9.194;2023-09-19T05:48:36;0.63;;;0.38;;
14900;SDS011;7542;49.078;9.194;2023-09-19T05:49:44;0.52;;;0.43;;
14900;SDS011;7542;49.078;9.194;2023-09-19T05:50:46;0.40;;;0.40;;
14900;SDS011;7542;49.078;9.194;2023-09-19T05:51:50;0.35;;;0.35;;
14900;SDS011;7542;49.078;9.194;2023-09-19T05:52:55;2.97;;;0.40;;
14900;SDS011;7542;49.078;9.194;2023-09-19T05:53:57;0.22;;;0.22;;
14900;SDS011;7542;49.078;9.194;2023-09-19T05:54:59;0.40;;;0.40;;
14900;SDS011;7542;49.078;9.194;2023-09-19T05:56:02;0.47;;;0.38;;
14900;SDS011;7542;49.078;9.194;2023-09-19T05:57:07;0.43;;;0.43;;
14900;SDS011;7542;49.078;9.194;2023-09-19T05:58:08;0.30;;;0.30;;
14900;SDS011;7542;49.078;9.194;2023-09-19T05:59:11;0.40;;;0.40;;
14900;SDS011;7542;49.078;9.194;2023-09-19T06:00:20;0.43;;;0.43;;
14900;SDS011;7542;49.078;9.194;2023-09-19T06:01:24;0.43;;;0.43;;
14900;SDS011;7542;49.078;9.194;2023-09-19T06:02:27;0.77;;;0.45;;
14900;SDS011;7542;49.078;9.194;2023-09-19T06:03:31;0.50;;;0.50;;
14900;SDS011;7542;49.078;9.194;2023-09-19T06:04:34;0.77;;;0.40;;
14900;SDS011;7542;49.078;9.194;2023-09-19T06:05:36;0.57;;;0.50;;
14900;SDS011;7542;49.078;9.194;2023-09-19T06:06:42;1.63;;;0.40;;
14900;SDS011;7542;49.078;9.194;2023-09-19T06:07:44;0.40;;;0.40;;
14900;SDS011;7542;49.078;9.194;2023-09-19T06:08:48;0.70;;;0.70;;
14900;SDS011;7542;49.078;9.194;2023-09-19T06:09:52;1.08;;;0.68;;
14900;SDS011;7542;49.078;9.194;2023-09-19T06:11:00;1.45;;;0.45;;
14900;SDS011;7542;49.078;9.194;2023-09-19T06:12:02;5.57;;;0.60;;
14900;SDS011;7542;49.078;9.194;2023-09-19T06:13:05;1.55;;;0.50;;
14900;SDS011;7542;49.078;9.194;2023-09-19T06:14:07;0.50;;;0.50;;
14900;SDS011;7542;49.078;9.194;2023-09-19T06:15:14;1.13;;;0.50;;
14900;SDS011;7542;49.078;9.194;2023-09-19T06:16:20;0.50;;;0.50;;
14900;SDS011;7542;49.078;9.194;2023-09-19T06:17:23;1.13;;;0.55;;
14900;SDS011;7542;49.078;9.194;2023-09-19T06:18:25;0.40;;;0.40;;
14900;SDS011;7542;49.078;9.194;2023-09-19T06:19:27;1.60;;;0.60;;
14900;SDS011;7542;49.078;9.194;2023-09-19T06:20:29;1.92;;;0.70;;
14900;SDS011;7542;49.078;9.194;2023-09-19T06:21:33;1.95;;;0.70;;
14900;SDS011;7542;49.078;9.194;2023-09-19T06:22:35;0.55;;;0.38;;
14900;SDS011;7542;49.078;9.194;2023-09-19T06:23:39;0.47;;;0.47;;
14900;SDS011;7542;49.078;9.194;2023-09-19T06:24:41;1.38;;;0.60;;
14900;SDS011;7542;49.078;9.194;2023-09-19T06:25:43;1.92;;;0.70;;
14900;SDS011;7542;49.078;9.194;2023-09-19T06:26:45;1.33;;;1.10;;
14900;SDS011;7542;49.078;9.194;2023-09-19T06:27:51;2.47;;;1.27;;
14900;SDS011;7542;49.078;9.194;2023-09-19T06:28:55;0.85;;;0.68;;
14900;SDS011;7542;49.078;9.194;2023-09-19T06:29:57;1.60;;;0.90;;
14900;SDS011;7542;49.078;9.194;2023-09-19T06:30:59;1.55;;;0.75;;
14900;SDS011;7542;49.078;9.194;2023-09-19T06:32:10;0.80;;;0.70;;
14900;SDS011;7542;49.078;9.194;2023-09-19T06:33:12;1.35;;;1.05;;
14900;SDS011;7542;49.078;9.194;2023-09-19T06:34:19;0.95;;;0.80;;
14900;SDS011;7542;49.078;9.194;2023-09-19T06:35:22;1.85;;;1.00;;
14900;SDS011;7542;49.078;9.194;2023-09-19T06:36:27;1.00;;;0.90;;
14900;SDS011;7542;49.078;9.194;2023-09-19T06:37:29;1.35;;;1.00;;
14900;SDS011;7542;49.078;9.194;2023-09-19T06:38:32;2.00;;;1.30;;
14900;SDS011;7542;49.078;9.194;2023-09-19T06:39:37;0.85;;;0.85;;
14900;SDS011;7542;49.078;9.194;2023-09-19T06:40:40;1.40;;;1.30;;
14900;SDS011;7542;49.078;9.194;2023-09-19T06:41:44;1.05;;;1.05;;
14900;SDS011;7542;49.078;9.194;2023-09-19T06:42:49;1.17;;;0.95;;
14900;SDS011;7542;49.078;9.194;2023-09-19T06:43:54;0.80;;;0.80;;
14900;SDS011;7542;49.078;9.194;2023-09-19T06:44:56;1.20;;;1.20;;
14900;SDS011;7542;49.078;9.194;2023-09-19T06:45:58;1.20;;;1.20;;
14900;SDS011;7542;49.078;9.194;2023-09-19T06:47:01;1.52;;;0.95;;
14900;SDS011;7542;49.078;9.194;2023-09-19T06:48:05;1.23;;;1.10;;
14900;SDS011;7542;49.078;9.194;2023-09-19T06:49:08;1.33;;;0.90;;
14900;SDS011;7542;49.078;9.194;2023-09-19T06:50:12;0.85;;;0.85;;
14900;SDS011;7542;49.078;9.194;2023-09-19T06:51:20;1.20;;;1.20;;
14900;SDS011;7542;49.078;9.194;2023-09-19T06:52:23;1.38;;;1.02;;
14900;SDS011;7542;49.078;9.194;2023-09-19T06:53:25;0.93;;;0.93;;
14900;SDS011;7542;49.078;9.194;2023-09-19T06:54:27;1.67;;;1.27;;
14900;SDS011;7542;49.078;9.194;2023-09-19T06:55:33;1.55;;;1.38;;
14900;SDS011;7542;49.078;9.194;2023-09-19T06:56:36;1.20;;;1.10;;
14900;SDS011;7542;49.078;9.194;2023-09-19T06:57:39;2.10;;;1.00;;